createdAt,value
2023-01-19T00:01:29.517Z,36.19
2023-01-19T00:03:57.883Z,36.44
2023-01-19T00:06:26.315Z,36.72
2023-01-19T00:08:54.888Z,36.82
2023-01-19T00:11:23.822Z,36.96
2023-01-19T00:13:52.010Z,37.11
2023-01-19T00:16:21.841Z,37.02
2023-01-19T00:18:51.919Z,37.07
2023-01-19T00:21:21.310Z,37.16
2023-01-19T00:23:49.623Z,37.15
2023-01-19T00:26:18.495Z,37.14
2023-01-19T00:28:46.621Z,37.18
2023-01-19T00:31:15.473Z,37.12
2023-01-19T00:33:44.052Z,37.41
2023-01-19T00:36:12.339Z,37.34
2023-01-19T00:38:40.612Z,37.40
2023-01-19T00:41:08.858Z,37.56
2023-01-19T00:43:37.052Z,37.59
2023-01-19T00:46:05.385Z,37.69
2023-01-19T00:48:33.866Z,37.73
2023-01-19T00:51:02.019Z,37.73
2023-01-19T00:53:30.333Z,37.90
2023-01-19T00:55:59.265Z,38.03
2023-01-19T00:58:27.394Z,38.14
2023-01-19T01:00:55.651Z,38.19
2023-01-19T01:03:24.002Z,38.24
2023-01-19T01:05:52.140Z,38.24
2023-01-19T01:08:20.281Z,38.39
2023-01-19T01:10:48.550Z,38.31
2023-01-19T01:13:21.301Z,38.41
2023-01-19T01:15:55.570Z,38.57
2023-01-19T01:18:24.465Z,38.55
2023-01-19T01:20:55.248Z,38.70
2023-01-19T01:23:24.738Z,38.69
2023-01-19T01:25:53.383Z,38.63
2023-01-19T01:28:21.596Z,38.75
2023-01-19T01:30:54.903Z,38.67
2023-01-19T01:33:40.884Z,38.71
2023-01-19T01:36:11.961Z,38.70
2023-01-19T01:38:41.399Z,38.86
2023-01-19T01:41:09.968Z,38.93
2023-01-19T01:43:48.606Z,39.02
2023-01-19T01:46:18.234Z,39.17
2023-01-19T01:48:57.451Z,39.20
2023-01-19T01:51:37.464Z,39.07
2023-01-19T01:54:18.390Z,39.06
2023-01-19T01:56:55.854Z,39.10
2023-01-19T01:59:31.234Z,39.24
2023-01-19T02:02:05.042Z,39.34
2023-01-19T02:04:33.591Z,39.38
2023-01-19T02:07:02.328Z,39.31
2023-01-19T02:09:33.674Z,39.36
2023-01-19T02:12:01.859Z,39.17
2023-01-19T02:14:29.986Z,39.20
2023-01-19T02:16:58.452Z,39.56
2023-01-19T02:19:33.160Z,39.61
2023-01-19T02:22:20.515Z,39.59
2023-01-19T02:24:49.621Z,39.43
2023-01-19T02:27:18.374Z,39.37
2023-01-19T02:29:46.746Z,39.38
2023-01-19T02:32:16.317Z,39.31
2023-01-19T02:34:44.505Z,39.29
2023-01-19T02:37:16.350Z,39.30
2023-01-19T02:39:54.899Z,39.30
2023-01-19T02:42:34.173Z,39.29
2023-01-19T02:45:04.992Z,39.38
2023-01-19T02:47:44.750Z,39.37
2023-01-19T02:50:37.918Z,39.62
2023-01-19T02:53:19.025Z,39.84
2023-01-19T02:55:55.488Z,39.80
2023-01-19T02:58:34.094Z,39.81
2023-01-19T03:01:47.447Z,39.74
2023-01-19T03:04:31.470Z,39.75
2023-01-19T03:07:09.468Z,39.83
2023-01-19T03:09:50.177Z,39.85
2023-01-19T03:12:31.295Z,39.95
2023-01-19T03:15:05.360Z,39.86
2023-01-19T03:17:36.183Z,39.99
2023-01-19T03:20:08.996Z,40.10
2023-01-19T03:22:37.069Z,40.13
2023-01-19T03:25:06.925Z,40.02
2023-01-19T03:27:40.168Z,39.98
2023-01-19T03:30:16.092Z,39.70
2023-01-19T03:33:03.598Z,39.36
2023-01-19T03:35:35.748Z,39.18
2023-01-19T03:38:07.853Z,39.16
2023-01-19T03:40:36.829Z,38.98
2023-01-19T03:43:06.501Z,38.92
2023-01-19T03:45:38.595Z,38.77
2023-01-19T03:48:07.954Z,38.63
2023-01-19T03:50:36.247Z,38.72
2023-01-19T03:53:14.611Z,38.53
2023-01-19T03:55:46.667Z,38.26
2023-01-19T03:58:18.238Z,38.32
2023-01-19T04:00:46.365Z,38.50
2023-01-19T04:03:16.798Z,38.73
2023-01-19T04:05:46.046Z,38.87
2023-01-19T04:08:14.243Z,39.15
2023-01-19T04:10:42.548Z,39.38
2023-01-19T04:13:11.152Z,39.80
2023-01-19T04:15:39.673Z,39.89
2023-01-19T04:18:09.136Z,39.95
2023-01-19T04:20:37.972Z,40.02
2023-01-19T04:23:06.174Z,40.31
2023-01-19T04:25:34.339Z,40.49
2023-01-19T04:28:02.789Z,40.47
2023-01-19T04:30:30.960Z,40.60
2023-01-19T04:33:00.102Z,40.51
2023-01-19T04:35:28.773Z,40.45
2023-01-19T04:37:57.179Z,40.38
2023-01-19T04:40:25.324Z,40.30
2023-01-19T04:42:56.108Z,40.33
2023-01-19T04:45:24.397Z,40.16
2023-01-19T04:47:52.728Z,40.24
2023-01-19T04:50:21.148Z,40.38
2023-01-19T04:52:49.313Z,40.12
2023-01-19T04:55:18.133Z,39.97
2023-01-19T04:57:47.941Z,40.14
2023-01-19T05:00:17.465Z,40.04
2023-01-19T05:02:45.738Z,39.83
2023-01-19T05:05:14.318Z,39.30
2023-01-19T05:07:43.747Z,39.55
2023-01-19T05:10:12.811Z,39.70
2023-01-19T05:12:41.134Z,40.34
2023-01-19T05:15:10.116Z,40.33
2023-01-19T05:17:38.492Z,40.97
2023-01-19T05:20:07.999Z,41.11
2023-01-19T05:22:36.249Z,40.84
2023-01-19T05:25:04.692Z,40.72
2023-01-19T05:27:33.095Z,40.65
2023-01-19T05:30:01.576Z,40.60
2023-01-19T05:32:29.829Z,40.93
2023-01-19T05:34:58.116Z,40.85
2023-01-19T05:37:26.482Z,40.75
2023-01-19T05:39:54.774Z,40.69
2023-01-19T05:42:23.051Z,40.59
2023-01-19T05:44:51.445Z,40.62
2023-01-19T05:47:19.666Z,40.70
2023-01-19T05:49:48.374Z,40.80
2023-01-19T05:52:16.689Z,40.91
2023-01-19T05:54:44.945Z,40.93
2023-01-19T05:57:13.300Z,40.97
2023-01-19T05:59:41.495Z,40.94
2023-01-19T06:02:09.616Z,40.87
2023-01-19T06:04:37.886Z,40.83
2023-01-19T06:07:06.667Z,41.04
2023-01-19T06:09:34.897Z,41.23
2023-01-19T06:12:03.946Z,41.16
2023-01-19T06:14:32.072Z,40.77
2023-01-19T06:17:00.624Z,40.81
2023-01-19T06:19:29.244Z,40.96
2023-01-19T06:21:57.441Z,41.26
2023-01-19T06:24:25.651Z,41.54
2023-01-19T06:26:53.957Z,41.84
2023-01-19T06:29:22.268Z,42.09
2023-01-19T06:31:51.022Z,42.28
2023-01-19T06:34:20.431Z,42.39
2023-01-19T06:36:48.625Z,42.23
2023-01-19T06:39:17.070Z,42.40
2023-01-19T06:41:45.337Z,42.45
2023-01-19T06:44:13.723Z,42.45
2023-01-19T06:46:41.917Z,42.55
2023-01-19T06:49:10.345Z,42.66
2023-01-19T06:51:38.763Z,42.72
2023-01-19T06:54:06.907Z,42.55
2023-01-19T06:56:35.190Z,42.71
2023-01-19T06:59:03.567Z,42.97
2023-01-19T07:01:32.418Z,43.16
2023-01-19T07:04:01.122Z,43.34
2023-01-19T07:06:29.433Z,43.13
2023-01-19T07:08:58.020Z,43.17
2023-01-19T07:11:33.006Z,43.13
2023-01-19T07:14:01.733Z,43.10
2023-01-19T07:16:30.122Z,43.03
2023-01-19T07:18:58.340Z,43.03
2023-01-19T07:21:29.096Z,43.03
2023-01-19T07:23:57.609Z,42.83
2023-01-19T07:26:25.854Z,42.67
2023-01-19T07:28:54.204Z,42.61
2023-01-19T07:31:23.017Z,42.68
2023-01-19T07:33:51.329Z,42.61
2023-01-19T07:36:19.508Z,42.59
2023-01-19T07:38:47.894Z,42.54
2023-01-19T07:41:16.258Z,42.49
2023-01-19T07:43:44.509Z,42.53
2023-01-19T07:46:13.235Z,42.52
2023-01-19T07:48:41.491Z,42.49
2023-01-19T07:51:12.740Z,41.87
2023-01-19T07:53:41.565Z,39.67
2023-01-19T07:56:11.152Z,36.82
2023-01-19T07:58:40.073Z,34.06
2023-01-19T08:01:10.361Z,31.88
2023-01-19T08:03:39.409Z,30.26
2023-01-19T08:06:20.299Z,28.74
2023-01-19T08:08:48.605Z,28.28
2023-01-19T08:11:17.846Z,28.28
2023-01-19T08:13:46.762Z,27.63
2023-01-19T08:16:15.030Z,26.60
2023-01-19T08:18:44.034Z,25.37
2023-01-19T08:21:12.386Z,24.25
2023-01-19T08:23:40.752Z,23.18
2023-01-19T08:26:27.306Z,22.50
2023-01-19T08:28:58.172Z,22.42
2023-01-19T08:31:27.403Z,22.87
2023-01-19T08:33:55.819Z,22.65
2023-01-19T08:36:24.099Z,22.06
2023-01-19T08:38:53.395Z,21.20
2023-01-19T08:41:21.854Z,20.22
2023-01-19T08:43:50.456Z,19.72
2023-01-19T08:46:19.387Z,18.98
2023-01-19T08:48:47.977Z,18.22
2023-01-19T08:51:17.144Z,17.57
2023-01-19T08:53:45.912Z,17.44
2023-01-19T08:56:14.447Z,17.43
2023-01-19T08:58:45.704Z,16.90
2023-01-19T09:01:15.007Z,16.49
2023-01-19T09:03:44.429Z,16.03
2023-01-19T09:06:16.025Z,15.26
2023-01-19T09:08:44.547Z,14.71
2023-01-19T09:11:14.881Z,14.30
2023-01-19T09:13:43.663Z,14.02
2023-01-19T09:16:12.093Z,13.57
2023-01-19T09:18:40.521Z,13.20
2023-01-19T09:21:10.200Z,13.15
2023-01-19T09:23:38.514Z,12.85
2023-01-19T09:26:06.782Z,12.67
2023-01-19T09:28:35.111Z,12.57
2023-01-19T09:31:08.429Z,12.42
2023-01-19T09:33:37.522Z,12.58
2023-01-19T09:36:06.435Z,12.67
2023-01-19T09:38:35.291Z,12.57
2023-01-19T09:41:03.667Z,12.47
2023-01-19T09:43:43.898Z,12.59
2023-01-19T09:46:27.904Z,12.52
2023-01-19T09:49:03.353Z,12.72
2023-01-19T09:51:38.478Z,12.83
2023-01-19T09:54:23.387Z,12.85
2023-01-19T09:56:53.735Z,13.06
2023-01-19T09:59:25.345Z,13.16
2023-01-19T10:02:23.050Z,13.61
2023-01-19T10:05:02.921Z,14.00
2023-01-19T10:07:59.717Z,14.42
2023-01-19T10:10:31.657Z,14.50
2023-01-19T10:13:22.542Z,14.55
2023-01-19T10:16:21.165Z,14.25
2023-01-19T10:18:53.064Z,13.99
2023-01-19T10:21:39.375Z,13.62
2023-01-19T10:24:29.634Z,13.46
2023-01-19T10:26:58.005Z,13.06
2023-01-19T10:29:33.854Z,12.85
2023-01-19T10:32:07.415Z,12.60
2023-01-19T10:34:36.587Z,12.58
2023-01-19T10:37:22.106Z,12.27
2023-01-19T10:39:57.490Z,12.36
2023-01-19T10:42:29.874Z,12.49
2023-01-19T10:44:58.817Z,12.49
2023-01-19T10:47:34.794Z,12.57
2023-01-19T10:50:24.909Z,12.31
2023-01-19T10:53:36.178Z,12.04
2023-01-19T10:56:23.626Z,11.96
2023-01-19T10:58:52.436Z,11.80
2023-01-19T11:01:26.957Z,11.61
2023-01-19T11:03:56.095Z,11.69
2023-01-19T11:06:28.152Z,11.58
2023-01-19T11:09:21.358Z,11.33
2023-01-19T11:11:52.503Z,11.32
2023-01-19T11:14:24.660Z,11.40
2023-01-19T11:16:58.373Z,11.41
2023-01-19T11:19:28.194Z,11.50
2023-01-19T11:22:25.842Z,11.61
2023-01-19T11:24:58.849Z,11.80
2023-01-19T11:27:28.320Z,11.69
2023-01-19T11:30:24.506Z,11.69
2023-01-19T11:32:56.445Z,11.59
2023-01-19T11:35:35.443Z,11.82
2023-01-19T11:38:13.772Z,11.83
2023-01-19T11:40:47.566Z,11.99
2023-01-19T11:43:16.883Z,11.95
2023-01-19T11:45:46.286Z,11.94
2023-01-19T11:48:27.732Z,11.81
2023-01-19T11:51:01.251Z,12.13
2023-01-19T11:53:34.114Z,12.12
2023-01-19T11:56:15.237Z,12.24
2023-01-19T11:58:45.368Z,12.40
2023-01-19T12:01:22.446Z,12.44
2023-01-19T12:04:05.639Z,12.69
2023-01-19T12:06:39.637Z,13.07
2023-01-19T12:09:14.065Z,13.50
2023-01-19T12:11:49.187Z,14.29
2023-01-19T12:14:23.347Z,14.84
2023-01-19T12:16:55.409Z,15.33
2023-01-19T12:19:43.366Z,15.89
2023-01-19T12:22:17.901Z,16.46
2023-01-19T12:25:01.184Z,16.95
2023-01-19T12:27:43.832Z,17.41
2023-01-19T12:30:32.681Z,17.91
2023-01-19T12:33:35.409Z,18.21
2023-01-19T12:36:27.001Z,18.58
2023-01-19T12:39:22.733Z,18.96
2023-01-19T12:42:16.236Z,19.34
2023-01-19T12:44:49.252Z,19.50
2023-01-19T12:47:24.142Z,19.63
2023-01-19T12:49:56.826Z,19.97
2023-01-19T12:52:48.906Z,20.15
2023-01-19T12:55:31.648Z,20.28
2023-01-19T12:58:13.973Z,20.55
2023-01-19T13:00:44.959Z,20.85
2023-01-19T13:03:25.759Z,20.74
2023-01-19T13:05:55.915Z,20.91
2023-01-19T13:08:49.698Z,20.83
2023-01-19T13:11:20.119Z,21.06
2023-01-19T13:14:18.038Z,21.21
2023-01-19T13:16:57.806Z,21.23
2023-01-19T13:19:37.401Z,21.26
2023-01-19T13:22:43.355Z,21.36
2023-01-19T13:25:21.668Z,21.21
2023-01-19T13:27:50.341Z,21.22
2023-01-19T13:30:22.428Z,21.33
2023-01-19T13:32:51.621Z,21.57
2023-01-19T13:35:21.172Z,21.34
2023-01-19T13:37:51.502Z,21.43
2023-01-19T13:40:26.467Z,21.40
2023-01-19T13:42:55.087Z,21.53
2023-01-19T13:45:31.835Z,21.48
2023-01-19T13:48:03.124Z,21.47
2023-01-19T13:50:34.219Z,21.41
2023-01-19T13:53:02.623Z,21.45
2023-01-19T13:55:32.083Z,21.29
2023-01-19T13:58:00.662Z,21.19
2023-01-19T14:00:30.403Z,21.25
2023-01-19T14:03:14.123Z,21.24
2023-01-19T14:05:44.282Z,21.14
2023-01-19T14:08:14.720Z,21.11
2023-01-19T14:10:48.125Z,21.17
2023-01-19T14:13:23.090Z,21.26
2023-01-19T14:15:56.692Z,21.21
2023-01-19T14:18:28.221Z,21.26
2023-01-19T14:21:06.192Z,21.22
2023-01-19T14:23:48.952Z,21.07
2023-01-19T14:26:52.311Z,21.21
2023-01-19T14:29:34.400Z,21.05
2023-01-19T14:32:18.036Z,21.13
2023-01-19T14:34:51.091Z,20.86
2023-01-19T14:37:32.933Z,20.23
2023-01-19T14:40:16.999Z,20.30
2023-01-19T14:42:59.906Z,20.30
2023-01-19T14:45:34.318Z,20.44
2023-01-19T14:48:19.651Z,20.35
2023-01-19T14:51:02.508Z,20.39
2023-01-19T14:53:37.591Z,20.49
2023-01-19T14:56:07.105Z,20.60
2023-01-19T14:58:36.107Z,20.67
2023-01-19T15:01:05.733Z,20.61
2023-01-19T15:03:44.418Z,20.63
2023-01-19T15:06:19.092Z,20.74
2023-01-19T15:08:48.179Z,20.76
2023-01-19T15:11:26.055Z,20.95
2023-01-19T15:13:54.715Z,21.00
2023-01-19T15:16:28.199Z,21.04
2023-01-19T15:18:56.932Z,20.84
2023-01-19T15:21:25.156Z,21.00
2023-01-19T15:23:55.111Z,21.08
2023-01-19T15:26:25.554Z,20.94
2023-01-19T15:28:56.512Z,21.10
2023-01-19T15:31:27.754Z,21.13
2023-01-19T15:33:57.406Z,21.07
2023-01-19T15:36:27.430Z,20.98
2023-01-19T15:38:56.325Z,21.07
2023-01-19T15:41:29.522Z,21.19
2023-01-19T15:44:01.469Z,21.12
2023-01-19T15:46:29.912Z,21.28
2023-01-19T15:48:59.255Z,21.11
2023-01-19T15:51:28.218Z,21.09
2023-01-19T15:53:57.937Z,21.37
2023-01-19T15:56:29.166Z,21.31
2023-01-19T15:58:58.935Z,21.29
2023-01-19T16:01:29.526Z,21.25
2023-01-19T16:04:05.567Z,21.04
2023-01-19T16:06:35.142Z,21.11
2023-01-19T16:09:03.856Z,21.34
2023-01-19T16:11:34.221Z,21.30
2023-01-19T16:14:02.766Z,21.49
2023-01-19T16:16:31.222Z,21.49
2023-01-19T16:18:59.719Z,21.39
2023-01-19T16:21:28.636Z,21.30
2023-01-19T16:23:57.157Z,21.36
2023-01-19T16:26:34.100Z,21.76
2023-01-19T16:29:06.002Z,21.78
2023-01-19T16:31:38.877Z,21.84
2023-01-19T16:34:08.854Z,22.22
2023-01-19T16:36:41.018Z,22.19
2023-01-19T16:39:15.115Z,22.35
2023-01-19T16:41:48.448Z,22.47
2023-01-19T16:44:20.546Z,22.70
2023-01-19T16:46:49.145Z,22.98
2023-01-19T16:49:22.241Z,23.01
2023-01-19T16:51:51.909Z,23.23
2023-01-19T16:54:22.487Z,23.35
2023-01-19T16:56:51.129Z,23.61
2023-01-19T16:59:21.203Z,23.93
2023-01-19T17:01:50.959Z,24.13
2023-01-19T17:04:21.603Z,24.23
2023-01-19T17:06:50.003Z,24.53
2023-01-19T17:09:20.112Z,24.64
2023-01-19T17:11:48.438Z,24.95
2023-01-19T17:14:20.857Z,25.25
2023-01-19T17:16:50.414Z,25.33
2023-01-19T17:19:20.424Z,25.41
2023-01-19T17:21:49.491Z,25.60
2023-01-19T17:24:18.613Z,25.69
2023-01-19T17:26:47.538Z,26.08
2023-01-19T17:29:16.442Z,26.13
2023-01-19T17:31:45.423Z,26.22
2023-01-19T17:34:16.038Z,26.41
2023-01-19T17:36:44.767Z,26.37
2023-01-19T17:39:14.314Z,26.93
2023-01-19T17:41:42.880Z,26.83
2023-01-19T17:44:11.520Z,27.20
2023-01-19T17:46:40.256Z,27.08
2023-01-19T17:49:08.769Z,27.11
2023-01-19T17:51:37.466Z,27.49
2023-01-19T17:54:06.173Z,27.39
2023-01-19T17:56:35.394Z,27.40
2023-01-19T17:59:05.071Z,27.40
2023-01-19T18:01:37.619Z,27.64
2023-01-19T18:04:08.109Z,27.99
2023-01-19T18:06:37.241Z,27.74
2023-01-19T18:09:06.494Z,27.71
2023-01-19T18:11:36.158Z,27.58
2023-01-19T18:14:05.831Z,27.30
2023-01-19T18:16:34.910Z,26.79
2023-01-19T18:19:03.422Z,26.64
2023-01-19T18:21:31.845Z,26.42
2023-01-19T18:24:02.552Z,26.33
2023-01-19T18:26:32.527Z,26.35
2023-01-19T18:29:01.373Z,26.54
2023-01-19T18:31:29.854Z,26.25
2023-01-19T18:33:58.818Z,26.32
2023-01-19T18:36:27.429Z,26.30
2023-01-19T18:38:55.746Z,26.47
2023-01-19T18:41:24.317Z,26.42
2023-01-19T18:43:56.774Z,26.29
2023-01-19T18:46:26.902Z,26.50
2023-01-19T18:48:55.234Z,26.49
2023-01-19T18:51:23.469Z,26.62
2023-01-19T18:53:52.099Z,26.79
2023-01-19T18:56:20.368Z,26.60
2023-01-19T18:58:48.580Z,26.70
2023-01-19T19:01:20.451Z,26.98
2023-01-19T19:03:48.823Z,27.32
2023-01-19T19:06:18.361Z,27.72
2023-01-19T19:08:55.907Z,28.21
2023-01-19T19:11:25.532Z,28.27
2023-01-19T19:13:56.993Z,28.41
2023-01-19T19:16:25.648Z,28.45
2023-01-19T19:18:54.022Z,28.71
2023-01-19T19:21:23.521Z,28.67
2023-01-19T19:23:54.470Z,29.46
2023-01-19T19:26:25.883Z,29.59
2023-01-19T19:28:55.448Z,29.72
2023-01-19T19:31:27.078Z,29.74
2023-01-19T19:33:57.233Z,30.12
2023-01-19T19:36:28.802Z,30.42
2023-01-19T19:38:59.552Z,30.49
2023-01-19T19:41:28.884Z,30.54
2023-01-19T19:43:57.128Z,30.81
2023-01-19T19:46:26.591Z,31.31
2023-01-19T19:48:56.160Z,31.72
2023-01-19T19:51:27.761Z,32.11
2023-01-19T19:53:58.422Z,32.30
2023-01-19T19:56:30.225Z,32.74
2023-01-19T19:58:59.977Z,33.23
2023-01-19T20:01:32.961Z,33.61
2023-01-19T20:04:10.963Z,33.73
2023-01-19T20:06:41.704Z,33.57
2023-01-19T20:09:12.452Z,34.26
2023-01-19T20:11:42.201Z,34.30
2023-01-19T20:14:13.276Z,34.30
2023-01-19T20:16:42.934Z,34.85
2023-01-19T20:19:11.916Z,34.85
2023-01-19T20:21:42.081Z,35.12
2023-01-19T20:24:17.617Z,35.01
2023-01-19T20:26:50.015Z,35.04
2023-01-19T20:29:20.177Z,35.62
2023-01-19T20:31:53.522Z,35.31
2023-01-19T20:34:26.472Z,35.68
2023-01-19T20:36:55.647Z,35.70
2023-01-19T20:39:24.674Z,35.94
2023-01-19T20:41:53.804Z,36.23
2023-01-19T20:44:25.612Z,36.55
2023-01-19T20:46:54.951Z,36.73
2023-01-19T20:49:23.687Z,37.33
2023-01-19T20:51:52.281Z,37.45
2023-01-19T20:54:24.495Z,37.29
2023-01-19T20:56:52.997Z,37.79
2023-01-19T20:59:21.670Z,37.90
2023-01-19T21:01:50.689Z,38.14
2023-01-19T21:04:19.331Z,38.44
2023-01-19T21:06:47.659Z,38.38
2023-01-19T21:09:15.959Z,38.53
2023-01-19T21:11:45.487Z,39.05
2023-01-19T21:14:15.307Z,39.13
2023-01-19T21:16:43.616Z,39.31
2023-01-19T21:19:12.083Z,39.45
2023-01-19T21:21:40.746Z,39.76
2023-01-19T21:24:10.832Z,39.83
2023-01-19T21:26:39.300Z,40.22
2023-01-19T21:29:09.344Z,40.38
2023-01-19T21:31:38.065Z,40.95
2023-01-19T21:34:07.138Z,41.18
2023-01-19T21:36:36.260Z,41.14
2023-01-19T21:39:04.476Z,41.32
2023-01-19T21:41:32.727Z,40.92
2023-01-19T21:44:01.787Z,41.95
2023-01-19T21:46:30.577Z,42.14
2023-01-19T21:49:01.327Z,42.20
2023-01-19T21:51:32.287Z,42.14
2023-01-19T21:54:05.199Z,42.43
2023-01-19T21:56:34.912Z,42.40
2023-01-19T21:59:03.185Z,42.66
2023-01-19T22:01:33.489Z,42.45
2023-01-19T22:04:02.601Z,42.69
2023-01-19T22:06:30.932Z,42.83
2023-01-19T22:08:59.484Z,43.01
2023-01-19T22:11:29.005Z,43.17
2023-01-19T22:13:57.608Z,43.10
2023-01-19T22:16:28.434Z,43.44
2023-01-19T22:19:01.564Z,43.81
2023-01-19T22:21:34.174Z,43.86
2023-01-19T22:24:04.553Z,43.24
2023-01-19T22:26:33.708Z,43.35
2023-01-19T22:29:03.838Z,43.50
2023-01-19T22:31:32.722Z,43.64
2023-01-19T22:34:01.055Z,44.28
2023-01-19T22:36:31.590Z,44.16
2023-01-19T22:39:11.041Z,44.29
2023-01-19T22:41:41.754Z,44.51
2023-01-19T22:44:19.052Z,44.68
2023-01-19T22:46:48.778Z,45.60
2023-01-19T22:49:18.516Z,45.49
2023-01-19T22:51:47.704Z,46.19
2023-01-19T22:54:15.959Z,45.85
2023-01-19T22:56:44.254Z,46.03
2023-01-19T22:59:12.671Z,46.58
2023-01-19T23:01:42.799Z,46.21
2023-01-19T23:04:14.504Z,46.37
2023-01-19T23:06:43.390Z,46.36
2023-01-19T23:09:14.317Z,46.63
2023-01-19T23:11:45.756Z,46.37
2023-01-19T23:14:17.197Z,46.35
2023-01-19T23:16:45.998Z,46.55
2023-01-19T23:19:14.709Z,47.14
2023-01-19T23:21:43.878Z,47.38
2023-01-19T23:24:13.080Z,47.72
2023-01-19T23:26:41.483Z,47.49
2023-01-19T23:29:15.075Z,47.36
2023-01-19T23:31:46.884Z,47.27
2023-01-19T23:34:15.497Z,47.69
2023-01-19T23:36:44.939Z,47.85
2023-01-19T23:39:21.899Z,47.48
2023-01-19T23:41:50.136Z,47.63
2023-01-19T23:44:18.744Z,48.22
2023-01-19T23:46:47.821Z,48.41
2023-01-19T23:49:16.537Z,48.29
2023-01-19T23:51:44.807Z,48.99
2023-01-19T23:54:14.075Z,48.79
2023-01-19T23:56:42.525Z,48.40
2023-01-19T23:59:13.363Z,48.39
